createdAt,value
2023-02-18T00:01:40.380Z,2.15
2023-02-18T00:04:08.830Z,1.08
2023-02-18T00:06:38.872Z,2.22
2023-02-18T00:09:08.915Z,0.65
2023-02-18T00:11:39.471Z,3.65
2023-02-18T00:14:14.113Z,0.45
2023-02-18T00:16:42.404Z,3.53
2023-02-18T00:19:13.667Z,2.58
2023-02-18T00:21:41.949Z,1.30
2023-02-18T00:24:12.766Z,2.85
2023-02-18T00:26:42.804Z,0.40
2023-02-18T00:29:11.169Z,0.30
2023-02-18T00:31:40.805Z,1.95
2023-02-18T00:34:08.955Z,0.52
2023-02-18T00:36:37.419Z,3.00
2023-02-18T00:39:10.016Z,3.17
2023-02-18T00:41:38.844Z,2.95
2023-02-18T00:44:08.437Z,2.95
2023-02-18T00:46:37.395Z,3.45
2023-02-18T00:49:06.311Z,2.95
2023-02-18T00:51:36.869Z,2.42
2023-02-18T00:54:05.127Z,2.95
2023-02-18T00:56:33.668Z,1.50
2023-02-18T00:59:01.771Z,3.00
2023-02-18T01:01:31.536Z,0.98
2023-02-18T01:03:59.822Z,4.95
2023-02-18T01:06:27.894Z,2.83
2023-02-18T01:08:55.998Z,0.40
2023-02-18T01:11:24.293Z,0.82
2023-02-18T01:13:52.524Z,0.30
2023-02-18T01:16:20.826Z,2.75
2023-02-18T01:18:50.498Z,2.50
2023-02-18T01:21:18.650Z,2.03
2023-02-18T01:23:46.773Z,0.95
2023-02-18T01:26:17.321Z,2.25
2023-02-18T01:28:45.443Z,1.25
2023-02-18T01:31:15.391Z,2.08
2023-02-18T01:33:43.911Z,0.15
2023-02-18T01:36:13.520Z,1.30
2023-02-18T01:38:41.801Z,2.35
2023-02-18T01:41:10.847Z,4.75
2023-02-18T01:43:39.451Z,0.50
2023-02-18T01:46:20.686Z,5.87
2023-02-18T01:48:53.617Z,2.60
2023-02-18T01:51:26.879Z,1.85
2023-02-18T01:53:58.475Z,2.03
2023-02-18T01:56:31.987Z,1.75
2023-02-18T01:59:04.500Z,1.50
2023-02-18T02:01:33.512Z,2.15
2023-02-18T02:04:02.858Z,1.27
2023-02-18T02:06:32.484Z,2.30
2023-02-18T02:09:03.432Z,0.55
2023-02-18T02:11:59.874Z,3.00
2023-02-18T02:14:42.568Z,0.85
2023-02-18T02:17:18.602Z,6.10
2023-02-18T02:20:17.174Z,1.83
2023-02-18T02:23:13.080Z,3.60
2023-02-18T02:26:02.598Z,4.32
2023-02-18T02:29:05.322Z,4.65
2023-02-18T02:32:03.306Z,2.30
2023-02-18T02:34:51.923Z,1.60
2023-02-18T02:37:28.764Z,0.60
2023-02-18T02:40:05.314Z,2.62
2023-02-18T02:42:47.816Z,2.08
2023-02-18T02:45:26.339Z,4.95
2023-02-18T02:48:03.087Z,6.45
2023-02-18T02:50:40.800Z,0.88
2023-02-18T02:53:17.063Z,2.90
2023-02-18T02:55:45.249Z,3.58
2023-02-18T02:58:18.012Z,1.05
2023-02-18T03:01:04.574Z,3.33
2023-02-18T03:03:54.563Z,2.85
2023-02-18T03:06:42.976Z,2.10
2023-02-18T03:09:17.654Z,3.37
2023-02-18T03:11:55.656Z,1.83
2023-02-18T03:14:29.993Z,0.55
2023-02-18T03:17:03.987Z,2.72
2023-02-18T03:19:36.059Z,1.05
2023-02-18T03:22:09.698Z,2.53
2023-02-18T03:24:41.847Z,7.03
2023-02-18T03:27:15.091Z,3.10
2023-02-18T03:29:45.952Z,3.85
2023-02-18T03:32:19.451Z,2.67
2023-02-18T03:34:51.640Z,5.15
2023-02-18T03:37:22.406Z,2.15
2023-02-18T03:39:53.570Z,2.00
2023-02-18T03:42:26.919Z,2.10
2023-02-18T03:44:55.185Z,2.37
2023-02-18T03:47:24.952Z,3.72
2023-02-18T03:49:52.885Z,2.72
2023-02-18T03:52:22.294Z,0.80
2023-02-18T03:54:52.331Z,2.55
2023-02-18T03:57:20.506Z,4.37
2023-02-18T03:59:48.581Z,4.87
2023-02-18T04:02:16.782Z,4.30
2023-02-18T04:04:45.045Z,1.40
2023-02-18T04:07:13.130Z,2.85
2023-02-18T04:09:42.430Z,1.65
2023-02-18T04:12:10.687Z,2.80
2023-02-18T04:14:38.659Z,4.95
2023-02-18T04:17:06.636Z,4.53
2023-02-18T04:19:34.921Z,4.28
2023-02-18T04:22:03.846Z,3.28
2023-02-18T04:24:31.895Z,5.28
2023-02-18T04:27:01.543Z,8.93
2023-02-18T04:29:29.710Z,5.78
2023-02-18T04:31:57.791Z,3.28
2023-02-18T04:34:26.162Z,6.32
2023-02-18T04:36:54.344Z,5.22
2023-02-18T04:39:22.387Z,4.32
2023-02-18T04:41:50.615Z,4.22
2023-02-18T04:44:20.044Z,6.32
2023-02-18T04:46:48.763Z,6.20
2023-02-18T04:49:17.026Z,6.10
2023-02-18T04:51:45.033Z,3.25
2023-02-18T04:54:13.112Z,4.68
2023-02-18T04:56:41.383Z,6.05
2023-02-18T04:59:09.290Z,3.60
2023-02-18T05:01:38.677Z,4.15
2023-02-18T05:04:07.155Z,3.42
2023-02-18T05:06:35.248Z,1.60
2023-02-18T05:09:03.239Z,2.80
2023-02-18T05:11:31.430Z,1.62
2023-02-18T05:13:59.456Z,4.80
2023-02-18T05:16:27.464Z,3.30
2023-02-18T05:18:56.987Z,3.35
2023-02-18T05:21:25.091Z,2.83
2023-02-18T05:23:53.212Z,2.53
2023-02-18T05:26:21.485Z,3.50
2023-02-18T05:28:49.769Z,4.65
2023-02-18T05:31:18.394Z,1.70
2023-02-18T05:33:46.655Z,4.10
2023-02-18T05:36:16.055Z,4.00
2023-02-18T05:38:44.145Z,4.28
2023-02-18T05:41:12.533Z,3.55
2023-02-18T05:43:54.447Z,5.25
2023-02-18T05:46:23.081Z,10.88
2023-02-18T05:48:51.208Z,3.15
2023-02-18T05:51:20.699Z,3.00
2023-02-18T05:53:48.912Z,4.93
2023-02-18T05:56:16.835Z,3.97
2023-02-18T05:58:45.300Z,3.72
2023-02-18T06:01:13.597Z,3.53
2023-02-18T06:03:41.996Z,4.95
2023-02-18T06:06:10.510Z,1.25
2023-02-18T06:08:40.190Z,4.45
2023-02-18T06:11:08.386Z,2.85
2023-02-18T06:13:36.454Z,2.87
2023-02-18T06:16:04.844Z,6.95
2023-02-18T06:18:33.220Z,4.95
2023-02-18T06:21:01.323Z,4.30
2023-02-18T06:23:29.266Z,4.57
2023-02-18T06:25:58.711Z,4.35
2023-02-18T06:28:26.791Z,3.85
2023-02-18T06:30:54.768Z,5.28
2023-02-18T06:33:23.096Z,6.43
2023-02-18T06:35:56.264Z,6.43
2023-02-18T06:38:24.708Z,6.37
2023-02-18T06:40:53.107Z,4.85
2023-02-18T06:43:22.974Z,3.97
2023-02-18T06:45:51.301Z,5.43
2023-02-18T06:48:19.805Z,6.22
2023-02-18T06:50:47.929Z,5.87
2023-02-18T06:53:17.467Z,8.52
2023-02-18T06:55:45.916Z,4.65
2023-02-18T06:58:15.055Z,6.10
2023-02-18T07:00:45.107Z,5.87
2023-02-18T07:03:14.232Z,7.50
2023-02-18T07:05:42.367Z,5.78
2023-02-18T07:08:10.808Z,5.20
2023-02-18T07:10:39.181Z,5.65
2023-02-18T07:13:07.775Z,8.68
2023-02-18T07:15:36.269Z,7.97
2023-02-18T07:18:06.386Z,5.00
2023-02-18T07:20:35.296Z,4.20
2023-02-18T07:23:04.100Z,6.20
2023-02-18T07:25:32.286Z,7.00
2023-02-18T07:28:00.247Z,4.90
2023-02-18T07:30:28.954Z,4.97
2023-02-18T07:32:56.920Z,5.97
2023-02-18T07:35:26.543Z,9.45
2023-02-18T07:37:54.882Z,6.82
2023-02-18T07:40:23.541Z,4.57
2023-02-18T07:42:51.580Z,7.03
2023-02-18T07:45:20.349Z,7.50
2023-02-18T07:47:48.733Z,9.35
2023-02-18T07:50:17.018Z,5.10
2023-02-18T07:52:46.664Z,6.30
2023-02-18T07:55:14.816Z,9.57
2023-02-18T07:57:56.905Z,7.30
2023-02-18T08:00:25.405Z,8.90
2023-02-18T08:02:53.621Z,9.63
2023-02-18T08:05:21.748Z,8.63
2023-02-18T08:07:51.027Z,8.95
2023-02-18T08:10:19.363Z,7.53
2023-02-18T08:12:47.347Z,10.77
2023-02-18T08:15:16.647Z,9.07
2023-02-18T08:17:44.934Z,9.50
2023-02-18T08:20:13.768Z,8.25
2023-02-18T08:22:41.768Z,6.10
2023-02-18T08:25:18.220Z,8.25
2023-02-18T08:27:56.777Z,7.55
2023-02-18T08:30:25.245Z,8.00
2023-02-18T08:32:53.646Z,6.78
2023-02-18T08:35:21.715Z,6.50
2023-02-18T08:37:52.265Z,5.87
2023-02-18T08:40:23.425Z,5.20
2023-02-18T08:42:51.695Z,4.25
2023-02-18T08:45:20.084Z,4.12
2023-02-18T08:48:19.210Z,4.15
2023-02-18T08:50:37.121Z,3.75
2023-02-18T08:53:06.098Z,0.73
2023-02-18T08:55:37.967Z,0.90
2023-02-18T08:58:07.415Z,0.40
2023-02-18T09:00:35.945Z,0.37
2023-02-18T09:03:04.524Z,2.22
2023-02-18T09:05:32.738Z,2.08
2023-02-18T09:08:00.897Z,0.47
2023-02-18T09:10:29.047Z,0.47
2023-02-18T09:12:58.934Z,0.35
2023-02-18T09:15:27.026Z,0.30
2023-02-18T09:17:54.976Z,0.20
2023-02-18T09:20:23.411Z,0.20
2023-02-18T09:22:51.349Z,0.75
2023-02-18T09:25:19.661Z,0.30
2023-02-18T09:27:47.964Z,0.20
2023-02-18T09:30:17.720Z,0.30
2023-02-18T09:32:45.717Z,0.57
2023-02-18T09:35:14.339Z,0.20
2023-02-18T09:37:42.510Z,0.15
2023-02-18T09:40:23.394Z,0.28
2023-02-18T09:42:51.891Z,1.17
2023-02-18T09:45:21.892Z,0.37
2023-02-18T09:47:51.656Z,0.37
2023-02-18T09:50:23.080Z,0.10
2023-02-18T09:52:51.614Z,2.53
2023-02-18T09:55:24.016Z,1.62
2023-02-18T09:57:55.414Z,0.20
2023-02-18T10:00:33.900Z,0.10
2023-02-18T10:03:06.784Z,0.30
2023-02-18T10:05:37.329Z,0.10
2023-02-18T10:08:09.063Z,1.60
2023-02-18T10:10:40.721Z,0.10
2023-02-18T10:13:14.890Z,0.00
2023-02-18T10:15:45.327Z,0.08
2023-02-18T10:18:25.243Z,0.13
2023-02-18T10:20:57.191Z,0.17
2023-02-18T10:23:26.292Z,0.73
2023-02-18T10:25:54.913Z,0.10
2023-02-18T10:28:24.703Z,1.50
2023-02-18T10:30:59.274Z,0.00
2023-02-18T10:33:36.553Z,1.00
2023-02-18T10:36:25.123Z,0.10
2023-02-18T10:39:22.261Z,0.03
2023-02-18T10:42:02.127Z,0.17
2023-02-18T10:44:40.450Z,0.10
2023-02-18T10:47:21.710Z,0.00
2023-02-18T10:49:59.225Z,0.65
2023-02-18T10:52:30.802Z,0.10
2023-02-18T10:55:05.032Z,0.32
2023-02-18T10:57:34.102Z,0.10
2023-02-18T11:00:11.903Z,0.00
2023-02-18T11:02:43.041Z,0.10
2023-02-18T11:05:20.598Z,0.10
2023-02-18T11:07:51.893Z,1.30
2023-02-18T11:10:25.453Z,0.03
2023-02-18T11:12:59.036Z,0.20
2023-02-18T11:15:28.843Z,0.10
2023-02-18T11:18:12.383Z,0.10
2023-02-18T11:20:41.308Z,0.10
2023-02-18T11:23:21.791Z,0.08
2023-02-18T11:26:03.075Z,0.10
2023-02-18T11:28:42.837Z,0.00
2023-02-18T11:31:17.929Z,0.10
2023-02-18T11:33:51.357Z,0.10
2023-02-18T11:36:26.796Z,0.00
2023-02-18T11:38:57.907Z,0.10
2023-02-18T11:41:35.046Z,0.10
2023-02-18T11:44:06.592Z,0.10
2023-02-18T11:46:35.004Z,0.05
2023-02-18T11:49:22.918Z,0.57
2023-02-18T11:51:51.725Z,0.20
2023-02-18T11:54:26.306Z,0.10
2023-02-18T11:56:59.574Z,0.10
2023-02-18T11:59:30.609Z,0.28
2023-02-18T12:02:07.391Z,0.10
2023-02-18T12:04:42.617Z,0.10
2023-02-18T12:07:20.187Z,1.42
2023-02-18T12:09:51.735Z,0.43
2023-02-18T12:12:27.269Z,0.47
2023-02-18T12:14:56.619Z,0.10
2023-02-18T12:17:51.378Z,0.03
2023-02-18T12:20:29.302Z,0.13
2023-02-18T12:23:06.324Z,0.00
2023-02-18T12:25:45.198Z,0.20
2023-02-18T12:28:27.624Z,0.05
2023-02-18T12:31:12.373Z,0.05
2023-02-18T12:33:52.974Z,0.10
2023-02-18T12:36:37.148Z,0.10
2023-02-18T12:39:13.397Z,0.00
2023-02-18T12:42:06.650Z,0.10
2023-02-18T12:44:45.361Z,0.37
2023-02-18T12:47:39.578Z,0.10
2023-02-18T12:50:31.900Z,0.47
2023-02-18T12:53:21.550Z,0.35
2023-02-18T12:56:02.124Z,2.72
2023-02-18T12:58:45.318Z,0.32
2023-02-18T13:01:45.463Z,0.10
2023-02-18T13:04:25.491Z,1.58
2023-02-18T13:07:25.763Z,0.10
2023-02-18T13:10:22.742Z,1.35
2023-02-18T13:12:57.860Z,0.10
2023-02-18T13:15:37.721Z,0.20
2023-02-18T13:18:12.536Z,1.37
2023-02-18T13:20:43.507Z,0.20
2023-02-18T13:23:19.744Z,0.10
2023-02-18T13:25:53.909Z,0.10
2023-02-18T13:28:29.642Z,0.20
2023-02-18T13:31:12.199Z,0.30
2023-02-18T13:33:48.500Z,0.70
2023-02-18T13:36:29.642Z,0.28
2023-02-18T13:39:06.622Z,0.60
2023-02-18T13:41:41.833Z,0.73
2023-02-18T13:44:11.218Z,0.65
2023-02-18T13:46:50.424Z,0.20
2023-02-18T13:49:22.883Z,0.00
2023-02-18T13:51:52.957Z,0.10
2023-02-18T13:54:27.493Z,0.10
2023-02-18T13:57:03.178Z,0.20
2023-02-18T13:59:37.307Z,0.30
2023-02-18T14:02:30.835Z,0.95
2023-02-18T14:05:16.785Z,0.30
2023-02-18T14:07:51.338Z,0.52
2023-02-18T14:10:35.656Z,0.32
2023-02-18T14:13:25.485Z,0.85
2023-02-18T14:16:02.934Z,1.70
2023-02-18T14:18:50.988Z,0.95
2023-02-18T14:21:37.195Z,0.22
2023-02-18T14:24:08.153Z,0.25
2023-02-18T14:26:41.229Z,0.57
2023-02-18T14:29:14.958Z,0.30
2023-02-18T14:31:51.099Z,0.77
2023-02-18T14:34:35.567Z,0.15
2023-02-18T14:37:21.650Z,0.35
2023-02-18T14:40:02.219Z,0.22
2023-02-18T14:42:43.605Z,0.98
2023-02-18T14:45:25.704Z,0.15
2023-02-18T14:48:21.621Z,0.40
2023-02-18T14:50:52.987Z,0.20
2023-02-18T14:53:24.337Z,1.37
2023-02-18T14:55:56.414Z,0.17
2023-02-18T14:58:32.518Z,0.20
2023-02-18T15:01:17.223Z,0.30
2023-02-18T15:03:45.697Z,0.20
2023-02-18T15:06:25.094Z,0.52
2023-02-18T15:08:53.403Z,0.60
2023-02-18T15:11:24.572Z,1.08
2023-02-18T15:13:53.024Z,0.68
2023-02-18T15:16:28.899Z,0.52
2023-02-18T15:19:00.341Z,0.75
2023-02-18T15:21:31.514Z,0.22
2023-02-18T15:24:06.648Z,0.40
2023-02-18T15:26:37.830Z,0.20
2023-02-18T15:29:07.556Z,0.20
2023-02-18T15:31:40.836Z,0.50
2023-02-18T15:34:32.266Z,0.35
2023-02-18T15:37:03.143Z,0.20
2023-02-18T15:39:33.431Z,0.55
2023-02-18T15:42:07.613Z,0.13
2023-02-18T15:44:37.701Z,0.30
2023-02-18T15:47:10.575Z,0.17
2023-02-18T15:49:41.726Z,0.88
2023-02-18T15:52:10.416Z,0.30
2023-02-18T15:54:42.368Z,0.20
2023-02-18T15:57:16.776Z,0.20
2023-02-18T15:59:54.465Z,0.47
2023-02-18T16:02:26.124Z,2.05
2023-02-18T16:04:58.938Z,2.30
2023-02-18T16:07:31.912Z,0.70
2023-02-18T16:10:17.316Z,1.80
2023-02-18T16:12:50.202Z,0.40
2023-02-18T16:15:26.961Z,2.60
2023-02-18T16:17:59.012Z,0.40
2023-02-18T16:20:32.333Z,0.40
2023-02-18T16:23:04.089Z,0.60
2023-02-18T16:25:43.307Z,0.50
2023-02-18T16:28:16.416Z,0.40
2023-02-18T16:30:46.220Z,0.30
2023-02-18T16:33:15.737Z,0.68
2023-02-18T16:35:50.058Z,0.40
2023-02-18T16:38:21.395Z,0.50
2023-02-18T16:40:50.074Z,0.90
2023-02-18T16:43:19.957Z,0.73
2023-02-18T16:45:50.443Z,0.30
2023-02-18T16:48:25.464Z,0.47
2023-02-18T16:50:53.849Z,0.43
2023-02-18T16:53:22.247Z,1.35
2023-02-18T16:55:51.243Z,0.85
2023-02-18T16:58:19.557Z,0.20
2023-02-18T17:00:48.968Z,1.90
2023-02-18T17:03:17.713Z,1.37
2023-02-18T17:05:47.879Z,0.30
2023-02-18T17:08:20.811Z,0.95
2023-02-18T17:10:50.143Z,0.80
2023-02-18T17:13:20.418Z,0.93
2023-02-18T17:15:51.100Z,2.87
2023-02-18T17:18:19.988Z,0.80
2023-02-18T17:20:51.173Z,0.85
2023-02-18T17:23:22.980Z,0.47
2023-02-18T17:25:52.715Z,0.57
2023-02-18T17:28:21.348Z,0.40
2023-02-18T17:30:54.355Z,0.70
2023-02-18T17:33:25.090Z,0.85
2023-02-18T17:35:54.990Z,0.57
2023-02-18T17:38:23.651Z,1.30
2023-02-18T17:40:52.015Z,1.30
2023-02-18T17:43:20.154Z,0.80
2023-02-18T17:45:52.689Z,0.68
2023-02-18T17:48:21.901Z,0.73
2023-02-18T17:50:50.472Z,1.10
2023-02-18T17:53:20.104Z,0.95
2023-02-18T17:55:49.190Z,2.58
2023-02-18T17:58:18.126Z,1.65
2023-02-18T18:00:49.162Z,1.45
2023-02-18T18:03:18.045Z,1.40
2023-02-18T18:05:49.138Z,1.85
2023-02-18T18:08:17.687Z,2.00
2023-02-18T18:10:50.589Z,0.75
2023-02-18T18:13:22.544Z,1.60
2023-02-18T18:15:51.310Z,1.87
2023-02-18T18:18:19.704Z,1.33
2023-02-18T18:20:49.305Z,2.25
2023-02-18T18:23:18.997Z,1.73
2023-02-18T18:25:51.194Z,3.55
2023-02-18T18:28:20.285Z,1.45
2023-02-18T18:30:50.982Z,1.45
2023-02-18T18:33:21.371Z,3.70
2023-02-18T18:35:51.991Z,1.40
2023-02-18T18:38:22.660Z,1.42
2023-02-18T18:40:56.046Z,1.70
2023-02-18T18:43:26.929Z,2.22
2023-02-18T18:45:56.063Z,2.33
2023-02-18T18:48:25.321Z,2.58
2023-02-18T18:50:54.677Z,2.53
2023-02-18T18:53:25.716Z,1.95
2023-02-18T18:55:57.610Z,2.28
2023-02-18T18:58:26.789Z,5.22
2023-02-18T19:00:56.828Z,3.55
2023-02-18T19:03:26.950Z,4.45
2023-02-18T19:05:55.536Z,2.17
2023-02-18T19:08:23.607Z,2.60
2023-02-18T19:10:53.822Z,3.20
2023-02-18T19:13:25.975Z,2.75
2023-02-18T19:16:01.744Z,1.77
2023-02-18T19:18:30.055Z,1.15
2023-02-18T19:20:58.082Z,1.60
2023-02-18T19:23:26.065Z,2.62
2023-02-18T19:25:54.293Z,1.77
2023-02-18T19:28:23.661Z,1.48
2023-02-18T19:30:51.894Z,2.25
2023-02-18T19:33:20.726Z,2.17
2023-02-18T19:35:48.713Z,1.37
2023-02-18T19:38:18.554Z,2.22
2023-02-18T19:40:47.775Z,2.35
2023-02-18T19:43:15.952Z,2.53
2023-02-18T19:45:46.557Z,1.35
2023-02-18T19:48:16.481Z,2.65
2023-02-18T19:50:44.771Z,2.25
2023-02-18T19:53:12.953Z,1.35
2023-02-18T19:55:41.397Z,0.95
2023-02-18T19:58:09.428Z,3.87
2023-02-18T20:00:37.495Z,2.00
2023-02-18T20:03:07.078Z,3.12
2023-02-18T20:05:38.985Z,4.28
2023-02-18T20:08:07.371Z,1.40
2023-02-18T20:10:36.466Z,2.40
2023-02-18T20:13:11.684Z,2.25
2023-02-18T20:15:41.955Z,2.92
2023-02-18T20:18:11.929Z,2.53
2023-02-18T20:20:40.203Z,2.20
2023-02-18T20:23:08.202Z,2.97
2023-02-18T20:25:36.165Z,1.80
2023-02-18T20:28:04.408Z,2.53
2023-02-18T20:30:32.549Z,3.00
2023-02-18T20:33:00.573Z,3.67
2023-02-18T20:35:30.151Z,2.25
2023-02-18T20:37:58.163Z,2.20
2023-02-18T20:40:27.164Z,3.22
2023-02-18T20:42:55.538Z,4.53
2023-02-18T20:45:23.623Z,2.90
2023-02-18T20:47:51.622Z,5.43
2023-02-18T20:50:21.737Z,3.62
2023-02-18T20:52:51.150Z,3.20
2023-02-18T20:55:19.565Z,3.10
2023-02-18T20:57:47.618Z,3.17
2023-02-18T21:00:17.230Z,3.45
2023-02-18T21:02:45.533Z,4.35
2023-02-18T21:05:13.852Z,4.47
2023-02-18T21:07:41.938Z,5.30
2023-02-18T21:10:11.637Z,4.03
2023-02-18T21:12:39.628Z,5.15
2023-02-18T21:15:08.205Z,4.55
2023-02-18T21:17:36.493Z,4.47
2023-02-18T21:20:05.505Z,3.90
2023-02-18T21:22:33.459Z,6.35
2023-02-18T21:25:01.764Z,5.45
2023-02-18T21:27:31.083Z,4.20
2023-02-18T21:29:59.794Z,4.03
2023-02-18T21:32:28.313Z,5.50
2023-02-18T21:34:56.397Z,5.18
2023-02-18T21:37:24.537Z,6.75
2023-02-18T21:39:52.961Z,4.55
2023-02-18T21:42:21.046Z,7.62
2023-02-18T21:44:50.443Z,6.95
2023-02-18T21:47:18.629Z,5.85
2023-02-18T21:49:46.595Z,5.65
2023-02-18T21:52:14.602Z,6.32
2023-02-18T21:54:44.740Z,6.60
2023-02-18T21:57:14.933Z,5.47
2023-02-18T21:59:45.222Z,7.90
2023-02-18T22:02:17.182Z,8.35
2023-02-18T22:04:46.228Z,6.10
2023-02-18T22:07:15.136Z,6.28
2023-02-18T22:09:43.229Z,5.70
2023-02-18T22:12:12.135Z,7.68
2023-02-18T22:14:40.401Z,8.93
2023-02-18T22:17:09.529Z,8.18
2023-02-18T22:19:39.215Z,6.10
2023-02-18T22:22:08.016Z,6.35
2023-02-18T22:24:37.491Z,7.72
2023-02-18T22:27:05.767Z,9.02
2023-02-18T22:29:33.869Z,4.90
2023-02-18T22:32:02.073Z,4.87
2023-02-18T22:34:30.535Z,5.12
2023-02-18T22:36:59.980Z,8.00
2023-02-18T22:39:28.037Z,6.82
2023-02-18T22:41:56.342Z,8.82
2023-02-18T22:44:26.146Z,6.05
2023-02-18T22:46:55.933Z,7.75
2023-02-18T22:49:25.220Z,5.85
2023-02-18T22:51:55.345Z,6.78
2023-02-18T22:54:24.887Z,6.68
2023-02-18T22:56:54.281Z,6.37
2023-02-18T22:59:22.284Z,6.37
2023-02-18T23:01:52.839Z,6.07
2023-02-18T23:04:22.149Z,6.62
2023-02-18T23:06:50.863Z,7.90
2023-02-18T23:09:21.502Z,7.68
2023-02-18T23:11:56.639Z,8.82
2023-02-18T23:14:25.862Z,9.57
2023-02-18T23:17:14.655Z,7.03
2023-02-18T23:19:44.821Z,7.70
2023-02-18T23:22:15.578Z,7.57
2023-02-18T23:24:45.267Z,5.20
2023-02-18T23:27:16.051Z,7.75
2023-02-18T23:29:44.131Z,8.23
2023-02-18T23:32:12.251Z,5.95
2023-02-18T23:34:40.842Z,8.10
2023-02-18T23:37:08.932Z,6.15
2023-02-18T23:39:37.098Z,6.32
2023-02-18T23:42:05.495Z,8.68
2023-02-18T23:44:35.415Z,7.65
2023-02-18T23:47:03.508Z,4.62
2023-02-18T23:49:31.880Z,6.25
2023-02-18T23:51:59.859Z,4.93
2023-02-18T23:54:30.619Z,5.87
2023-02-18T23:56:58.980Z,8.05
2023-02-18T23:59:27.185Z,4.72
